sensor_id;sensor_type;location;lat;lon;timestamp;P1;durP1;ratioP1;P2;durP2;ratioP2
40048;SDS011;54524;55.740;37.544;2023-11-22T00:01:03;3;;;2;;
40048;SDS011;54524;55.740;37.544;2023-11-22T00:02:04;3;;;2;;
40048;SDS011;54524;55.740;37.544;2023-11-22T00:03:05;3;;;2;;
40048;SDS011;54524;55.740;37.544;2023-11-22T00:04:05;2.2;;;1.9;;
40048;SDS011;54524;55.740;37.544;2023-11-22T00:05:06;2.3;;;1.9;;
40048;SDS011;54524;55.740;37.544;2023-11-22T00:06:07;2.4;;;1.9;;
40048;SDS011;54524;55.740;37.544;2023-11-22T00:07:07;2.2;;;1.8;;
40048;SDS011;54524;55.740;37.544;2023-11-22T00:08:08;2.2;;;1.8;;
40048;SDS011;54524;55.740;37.544;2023-11-22T00:09:08;2.5;;;1.8;;
40048;SDS011;54524;55.740;37.544;2023-11-22T00:11:03;3.9;;;2;;
40048;SDS011;54524;55.740;37.544;2023-11-22T00:12:05;3.9;;;2.1;;
40048;SDS011;54524;55.740;37.544;2023-11-22T00:13:06;2.9;;;1.9;;
40048;SDS011;54524;55.740;37.544;2023-11-22T00:14:07;2.8;;;1.9;;
40048;SDS011;54524;55.740;37.544;2023-11-22T00:15:07;2.8;;;1.9;;
40048;SDS011;54524;55.740;37.544;2023-11-22T00:16:09;2.7;;;2.1;;
40048;SDS011;54524;55.740;37.544;2023-11-22T00:17:09;2.7;;;2.1;;
40048;SDS011;54524;55.740;37.544;2023-11-22T00:18:10;2.7;;;2.1;;
40048;SDS011;54524;55.740;37.544;2023-11-22T00:19:11;3.4;;;2.2;;
40048;SDS011;54524;55.740;37.544;2023-11-22T00:21:03;3.4;;;2.2;;
40048;SDS011;54524;55.740;37.544;2023-11-22T00:22:04;3.2;;;2.2;;
40048;SDS011;54524;55.740;37.544;2023-11-22T00:23:11;3.1;;;2.2;;
40048;SDS011;54524;55.740;37.544;2023-11-22T00:24:13;3.2;;;2.2;;
40048;SDS011;54524;55.740;37.544;2023-11-22T00:25:14;2.8;;;2.1;;
40048;SDS011;54524;55.740;37.544;2023-11-22T00:26:14;3;;;2.1;;
40048;SDS011;54524;55.740;37.544;2023-11-22T00:27:15;3;;;2.1;;
40048;SDS011;54524;55.740;37.544;2023-11-22T00:28:16;3.4;;;2.2;;
40048;SDS011;54524;55.740;37.544;2023-11-22T00:29:17;3.4;;;2.2;;
40048;SDS011;54524;55.740;37.544;2023-11-22T00:31:03;3.6;;;2.3;;
40048;SDS011;54524;55.740;37.544;2023-11-22T00:32:04;3.5;;;2.3;;
40048;SDS011;54524;55.740;37.544;2023-11-22T00:33:05;3.4;;;2.3;;
40048;SDS011;54524;55.740;37.544;2023-11-22T00:34:06;3.9;;;2.4;;
40048;SDS011;54524;55.740;37.544;2023-11-22T00:35:07;3.9;;;2.4;;
40048;SDS011;54524;55.740;37.544;2023-11-22T00:36:08;4;;;2.4;;
40048;SDS011;54524;55.740;37.544;2023-11-22T00:37:08;3.1;;;2;;
40048;SDS011;54524;55.740;37.544;2023-11-22T00:38:09;3.2;;;2;;
40048;SDS011;54524;55.740;37.544;2023-11-22T00:39:09;3.2;;;2;;
40048;SDS011;54524;55.740;37.544;2023-11-22T00:41:03;2.8;;;2.2;;
40048;SDS011;54524;55.740;37.544;2023-11-22T00:42:03;2.8;;;2.2;;
40048;SDS011;54524;55.740;37.544;2023-11-22T00:43:04;2.8;;;2.3;;
40048;SDS011;54524;55.740;37.544;2023-11-22T00:44:05;3.7;;;2.4;;
40048;SDS011;54524;55.740;37.544;2023-11-22T00:45:06;3.7;;;2.4;;
40048;SDS011;54524;55.740;37.544;2023-11-22T00:46:07;3.7;;;2.4;;
40048;SDS011;54524;55.740;37.544;2023-11-22T00:47:07;3.8;;;2.5;;
40048;SDS011;54524;55.740;37.544;2023-11-22T00:48:08;3.8;;;2.4;;
40048;SDS011;54524;55.740;37.544;2023-11-22T00:49:09;4;;;2.4;;
40048;SDS011;54524;55.740;37.544;2023-11-22T00:51:04;3.7;;;2.7;;
40048;SDS011;54524;55.740;37.544;2023-11-22T00:52:09;3.8;;;2.8;;
40048;SDS011;54524;55.740;37.544;2023-11-22T00:53:09;6.8;;;2.8;;
40048;SDS011;54524;55.740;37.544;2023-11-22T00:54:09;6.8;;;2.7;;
40048;SDS011;54524;55.740;37.544;2023-11-22T00:55:10;6.7;;;2.7;;
40048;SDS011;54524;55.740;37.544;2023-11-22T00:56:11;4;;;2.7;;
40048;SDS011;54524;55.740;37.544;2023-11-22T00:57:11;4.1;;;2.8;;
40048;SDS011;54524;55.740;37.544;2023-11-22T00:58:12;4.2;;;2.8;;
40048;SDS011;54524;55.740;37.544;2023-11-22T00:59:12;4.9;;;2.7;;
40048;SDS011;54524;55.740;37.544;2023-11-22T01:01:04;4.8;;;2.8;;
40048;SDS011;54524;55.740;37.544;2023-11-22T01:02:05;4.8;;;2.9;;
40048;SDS011;54524;55.740;37.544;2023-11-22T01:03:06;4.8;;;2.9;;
40048;SDS011;54524;55.740;37.544;2023-11-22T01:04:08;4.8;;;2.9;;
40048;SDS011;54524;55.740;37.544;2023-11-22T01:05:10;5.6;;;3;;
40048;SDS011;54524;55.740;37.544;2023-11-22T01:06:11;5.5;;;3;;
40048;SDS011;54524;55.740;37.544;2023-11-22T01:07:12;5.5;;;3;;
40048;SDS011;54524;55.740;37.544;2023-11-22T01:08:13;0;;;0;;
40048;SDS011;54524;55.740;37.544;2023-11-22T01:09:14;4.7;;;3;;
40048;SDS011;54524;55.740;37.544;2023-11-22T01:11:02;6.30;;;1.20;;
40048;SDS011;54524;55.740;37.544;2023-11-22T01:12:04;4.8;;;3;;
40048;SDS011;54524;55.740;37.544;2023-11-22T01:13:05;4.8;;;3;;
40048;SDS011;54524;55.740;37.544;2023-11-22T01:14:05;4.6;;;3;;
40048;SDS011;54524;55.740;37.544;2023-11-22T01:15:06;5.5;;;3.2;;
40048;SDS011;54524;55.740;37.544;2023-11-22T01:16:07;5.4;;;3.2;;
40048;SDS011;54524;55.740;37.544;2023-11-22T01:17:08;5.4;;;3.2;;
40048;SDS011;54524;55.740;37.544;2023-11-22T01:18:09;4.7;;;3;;
40048;SDS011;54524;55.740;37.544;2023-11-22T01:19:09;4.7;;;3;;
40048;SDS011;54524;55.740;37.544;2023-11-22T01:21:02;4.6;;;3;;
40048;SDS011;54524;55.740;37.544;2023-11-22T01:22:04;4.7;;;3.1;;
40048;SDS011;54524;55.740;37.544;2023-11-22T01:23:06;4.9;;;3.1;;
40048;SDS011;54524;55.740;37.544;2023-11-22T01:24:07;5.1;;;3.3;;
40048;SDS011;54524;55.740;37.544;2023-11-22T01:25:07;5.2;;;3.3;;
40048;SDS011;54524;55.740;37.544;2023-11-22T01:26:08;5.1;;;3.4;;
40048;SDS011;54524;55.740;37.544;2023-11-22T01:27:10;5.1;;;3.4;;
40048;SDS011;54524;55.740;37.544;2023-11-22T01:28:10;5;;;3.4;;
40048;SDS011;54524;55.740;37.544;2023-11-22T01:29:11;4.4;;;3.3;;
40048;SDS011;54524;55.740;37.544;2023-11-22T01:31:03;6.1;;;3.2;;
40048;SDS011;54524;55.740;37.544;2023-11-22T01:32:04;6.2;;;3.2;;
40048;SDS011;54524;55.740;37.544;2023-11-22T01:33:05;5.7;;;3.2;;
40048;SDS011;54524;55.740;37.544;2023-11-22T01:34:05;5.8;;;3.2;;
40048;SDS011;54524;55.740;37.544;2023-11-22T01:35:06;5.8;;;3.2;;
40048;SDS011;54524;55.740;37.544;2023-11-22T01:36:07;5.9;;;3.3;;
40048;SDS011;54524;55.740;37.544;2023-11-22T01:37:08;5.7;;;3.3;;
40048;SDS011;54524;55.740;37.544;2023-11-22T01:38:08;5.4;;;3.2;;
40048;SDS011;54524;55.740;37.544;2023-11-22T01:39:10;6;;;3.1;;
40048;SDS011;54524;55.740;37.544;2023-11-22T01:41:03;5.9;;;3.2;;
40048;SDS011;54524;55.740;37.544;2023-11-22T01:42:04;4.9;;;3.2;;
40048;SDS011;54524;55.740;37.544;2023-11-22T01:43:06;4.8;;;3.2;;
40048;SDS011;54524;55.740;37.544;2023-11-22T01:44:08;4.9;;;3.2;;
40048;SDS011;54524;55.740;37.544;2023-11-22T01:45:09;5.3;;;3.2;;
40048;SDS011;54524;55.740;37.544;2023-11-22T01:46:10;5.5;;;3.3;;
40048;SDS011;54524;55.740;37.544;2023-11-22T01:47:17;5.5;;;3.3;;
40048;SDS011;54524;55.740;37.544;2023-11-22T01:48:17;4.1;;;2.8;;
40048;SDS011;54524;55.740;37.544;2023-11-22T01:49:18;4;;;2.8;;
40048;SDS011;54524;55.740;37.544;2023-11-22T01:51:03;3.7;;;2.9;;
40048;SDS011;54524;55.740;37.544;2023-11-22T01:52:04;3.6;;;2.8;;
40048;SDS011;54524;55.740;37.544;2023-11-22T01:53:04;3.8;;;2.8;;
40048;SDS011;54524;55.740;37.544;2023-11-22T01:54:06;5;;;3.1;;
40048;SDS011;54524;55.740;37.544;2023-11-22T01:55:07;5.1;;;3.1;;
40048;SDS011;54524;55.740;37.544;2023-11-22T01:56:09;5.1;;;3.1;;
40048;SDS011;54524;55.740;37.544;2023-11-22T01:57:10;4.1;;;3;;
40048;SDS011;54524;55.740;37.544;2023-11-22T01:58:10;4.2;;;2.9;;
40048;SDS011;54524;55.740;37.544;2023-11-22T01:59:11;4.2;;;2.9;;
40048;SDS011;54524;55.740;37.544;2023-11-22T02:01:03;4.6;;;3;;
40048;SDS011;54524;55.740;37.544;2023-11-22T02:02:04;4.4;;;2.9;;
40048;SDS011;54524;55.740;37.544;2023-11-22T02:03:05;4.4;;;2.9;;
40048;SDS011;54524;55.740;37.544;2023-11-22T02:04:06;0;;;0;;
40048;SDS011;54524;55.740;37.544;2023-11-22T02:05:06;4.6;;;2.6;;
40048;SDS011;54524;55.740;37.544;2023-11-22T02:06:07;4.6;;;2.6;;
40048;SDS011;54524;55.740;37.544;2023-11-22T02:07:09;4.6;;;2.6;;
40048;SDS011;54524;55.740;37.544;2023-11-22T02:08:10;4.7;;;2.8;;
40048;SDS011;54524;55.740;37.544;2023-11-22T02:09:11;4.8;;;2.8;;
40048;SDS011;54524;55.740;37.544;2023-11-22T02:11:04;4.5;;;2.8;;
40048;SDS011;54524;55.740;37.544;2023-11-22T02:12:05;4.6;;;2.9;;
40048;SDS011;54524;55.740;37.544;2023-11-22T02:13:05;5.1;;;2.9;;
40048;SDS011;54524;55.740;37.544;2023-11-22T02:14:07;4;;;2.4;;
40048;SDS011;54524;55.740;37.544;2023-11-22T02:15:09;3.9;;;2.4;;
40048;SDS011;54524;55.740;37.544;2023-11-22T02:16:10;3.4;;;2.4;;
40048;SDS011;54524;55.740;37.544;2023-11-22T02:17:11;4.1;;;2.5;;
40048;SDS011;54524;55.740;37.544;2023-11-22T02:18:11;4;;;2.5;;
40048;SDS011;54524;55.740;37.544;2023-11-22T02:19:13;3.9;;;2.5;;
40048;SDS011;54524;55.740;37.544;2023-11-22T02:21:03;3.9;;;2.6;;
40048;SDS011;54524;55.740;37.544;2023-11-22T02:22:04;3.9;;;2.6;;
40048;SDS011;54524;55.740;37.544;2023-11-22T02:23:07;3.6;;;2.5;;
40048;SDS011;54524;55.740;37.544;2023-11-22T02:24:09;3.6;;;2.4;;
40048;SDS011;54524;55.740;37.544;2023-11-22T02:25:09;3.6;;;2.4;;
40048;SDS011;54524;55.740;37.544;2023-11-22T02:26:10;2.7;;;2.3;;
40048;SDS011;54524;55.740;37.544;2023-11-22T02:27:10;2.7;;;2.3;;
40048;SDS011;54524;55.740;37.544;2023-11-22T02:28:11;2.7;;;2.3;;
40048;SDS011;54524;55.740;37.544;2023-11-22T02:29:12;4.5;;;2.4;;
40048;SDS011;54524;55.740;37.544;2023-11-22T02:31:04;4.4;;;2.4;;
40048;SDS011;54524;55.740;37.544;2023-11-22T02:32:05;3;;;2.3;;
40048;SDS011;54524;55.740;37.544;2023-11-22T02:33:05;3;;;2.3;;
40048;SDS011;54524;55.740;37.544;2023-11-22T02:34:06;2.8;;;2.3;;
40048;SDS011;54524;55.740;37.544;2023-11-22T02:35:07;3.7;;;2.5;;
40048;SDS011;54524;55.740;37.544;2023-11-22T02:36:08;3.6;;;2.5;;
40048;SDS011;54524;55.740;37.544;2023-11-22T02:37:12;3.6;;;2.5;;
40048;SDS011;54524;55.740;37.544;2023-11-22T02:38:13;4.5;;;2.7;;
40048;SDS011;54524;55.740;37.544;2023-11-22T02:39:14;4.4;;;2.6;;
40048;SDS011;54524;55.740;37.544;2023-11-22T02:41:04;4.4;;;2.6;;
40048;SDS011;54524;55.740;37.544;2023-11-22T02:42:04;3.7;;;2.5;;
40048;SDS011;54524;55.740;37.544;2023-11-22T02:43:05;3.8;;;2.6;;
40048;SDS011;54524;55.740;37.544;2023-11-22T02:44:09;3.9;;;2.6;;
40048;SDS011;54524;55.740;37.544;2023-11-22T02:45:09;3.9;;;2.4;;
40048;SDS011;54524;55.740;37.544;2023-11-22T02:46:10;3.9;;;2.4;;
40048;SDS011;54524;55.740;37.544;2023-11-22T02:47:10;3.2;;;2.3;;
40048;SDS011;54524;55.740;37.544;2023-11-22T02:48:11;4;;;2.4;;
40048;SDS011;54524;55.740;37.544;2023-11-22T02:49:11;4.1;;;2.4;;
40048;SDS011;54524;55.740;37.544;2023-11-22T02:51:03;3.4;;;2.5;;
40048;SDS011;54524;55.740;37.544;2023-11-22T02:52:04;3.4;;;2.5;;
40048;SDS011;54524;55.740;37.544;2023-11-22T02:53:04;3.4;;;2.5;;
40048;SDS011;54524;55.740;37.544;2023-11-22T02:54:05;3.7;;;2.5;;
40048;SDS011;54524;55.740;37.544;2023-11-22T02:55:06;4.3;;;2.7;;
40048;SDS011;54524;55.740;37.544;2023-11-22T02:56:07;4.3;;;2.6;;
40048;SDS011;54524;55.740;37.544;2023-11-22T02:57:07;3.9;;;2.5;;
40048;SDS011;54524;55.740;37.544;2023-11-22T02:58:08;3.9;;;2.5;;
40048;SDS011;54524;55.740;37.544;2023-11-22T02:59:08;3.9;;;2.5;;
40048;SDS011;54524;55.740;37.544;2023-11-22T03:01:03;3.3;;;2.4;;
40048;SDS011;54524;55.740;37.544;2023-11-22T03:02:04;3.3;;;2.4;;
40048;SDS011;54524;55.740;37.544;2023-11-22T03:03:04;3.2;;;2.3;;
40048;SDS011;54524;55.740;37.544;2023-11-22T03:04:10;6.1;;;2.7;;
40048;SDS011;54524;55.740;37.544;2023-11-22T03:05:10;6;;;2.6;;
40048;SDS011;54524;55.740;37.544;2023-11-22T03:06:11;6.1;;;2.7;;
40048;SDS011;54524;55.740;37.544;2023-11-22T03:07:11;3.4;;;2.4;;
40048;SDS011;54524;55.740;37.544;2023-11-22T03:08:12;3.4;;;2.4;;
40048;SDS011;54524;55.740;37.544;2023-11-22T03:09:14;3.3;;;2.3;;
40048;SDS011;54524;55.740;37.544;2023-11-22T03:11:04;5.4;;;2.5;;
40048;SDS011;54524;55.740;37.544;2023-11-22T03:12:04;5.6;;;2.6;;
40048;SDS011;54524;55.740;37.544;2023-11-22T03:13:06;3.7;;;2.5;;
40048;SDS011;54524;55.740;37.544;2023-11-22T03:14:07;3.7;;;2.6;;
40048;SDS011;54524;55.740;37.544;2023-11-22T03:15:09;3.7;;;2.6;;
40048;SDS011;54524;55.740;37.544;2023-11-22T03:16:10;4.2;;;2.6;;
40048;SDS011;54524;55.740;37.544;2023-11-22T03:17:11;4.1;;;2.5;;
40048;SDS011;54524;55.740;37.544;2023-11-22T03:18:13;4.2;;;2.6;;
40048;SDS011;54524;55.740;37.544;2023-11-22T03:19:14;3.1;;;2.5;;
40048;SDS011;54524;55.740;37.544;2023-11-22T03:21:03;6.30;;;1.20;;
40048;SDS011;54524;55.740;37.544;2023-11-22T03:22:03;3;;;2.5;;
40048;SDS011;54524;55.740;37.544;2023-11-22T03:23:04;3.7;;;2.6;;
40048;SDS011;54524;55.740;37.544;2023-11-22T03:24:05;3.7;;;2.6;;
40048;SDS011;54524;55.740;37.544;2023-11-22T03:25:06;3.7;;;2.6;;
40048;SDS011;54524;55.740;37.544;2023-11-22T03:26:10;3.7;;;2.8;;
40048;SDS011;54524;55.740;37.544;2023-11-22T03:27:10;3.7;;;2.8;;
40048;SDS011;54524;55.740;37.544;2023-11-22T03:28:11;3.8;;;2.8;;
40048;SDS011;54524;55.740;37.544;2023-11-22T03:29:11;4.1;;;2.7;;
40048;SDS011;54524;55.740;37.544;2023-11-22T03:31:06;4.2;;;2.8;;
40048;SDS011;54524;55.740;37.544;2023-11-22T03:32:08;5.2;;;2.9;;
40048;SDS011;54524;55.740;37.544;2023-11-22T03:33:08;5.3;;;2.9;;
40048;SDS011;54524;55.740;37.544;2023-11-22T03:34:09;5.3;;;2.9;;
40048;SDS011;54524;55.740;37.544;2023-11-22T03:35:10;4.9;;;2.7;;
40048;SDS011;54524;55.740;37.544;2023-11-22T03:36:12;5;;;2.8;;
40048;SDS011;54524;55.740;37.544;2023-11-22T03:37:12;5.1;;;2.9;;
40048;SDS011;54524;55.740;37.544;2023-11-22T03:38:13;3.6;;;2.8;;
40048;SDS011;54524;55.740;37.544;2023-11-22T03:39:13;3.8;;;2.9;;
40048;SDS011;54524;55.740;37.544;2023-11-22T03:41:03;5.9;;;2.7;;
40048;SDS011;54524;55.740;37.544;2023-11-22T03:42:05;5.8;;;2.7;;
40048;SDS011;54524;55.740;37.544;2023-11-22T03:43:06;5.8;;;2.7;;
40048;SDS011;54524;55.740;37.544;2023-11-22T03:44:10;4.7;;;3;;
40048;SDS011;54524;55.740;37.544;2023-11-22T03:45:10;4.6;;;2.9;;
40048;SDS011;54524;55.740;37.544;2023-11-22T03:46:13;4.7;;;2.9;;
40048;SDS011;54524;55.740;37.544;2023-11-22T03:47:14;4.2;;;3;;
40048;SDS011;54524;55.740;37.544;2023-11-22T03:48:15;4;;;2.9;;
40048;SDS011;54524;55.740;37.544;2023-11-22T03:49:16;4;;;2.9;;
40048;SDS011;54524;55.740;37.544;2023-11-22T03:51:04;4.9;;;3.1;;
40048;SDS011;54524;55.740;37.544;2023-11-22T03:52:05;4.9;;;3.1;;
40048;SDS011;54524;55.740;37.544;2023-11-22T03:53:06;4.9;;;3.1;;
40048;SDS011;54524;55.740;37.544;2023-11-22T03:54:06;4.9;;;3;;
40048;SDS011;54524;55.740;37.544;2023-11-22T03:55:08;5;;;3.1;;
40048;SDS011;54524;55.740;37.544;2023-11-22T03:56:08;5;;;3.1;;
40048;SDS011;54524;55.740;37.544;2023-11-22T03:57:09;4.4;;;2.9;;
40048;SDS011;54524;55.740;37.544;2023-11-22T03:58:09;4.3;;;2.9;;
40048;SDS011;54524;55.740;37.544;2023-11-22T03:59:10;4.4;;;3;;
40048;SDS011;54524;55.740;37.544;2023-11-22T04:01:04;4.5;;;3;;
40048;SDS011;54524;55.740;37.544;2023-11-22T04:02:04;4.6;;;3;;
40048;SDS011;54524;55.740;37.544;2023-11-22T04:03:05;4.8;;;3.2;;
40048;SDS011;54524;55.740;37.544;2023-11-22T04:04:06;4.9;;;3.3;;
40048;SDS011;54524;55.740;37.544;2023-11-22T04:05:09;5;;;3.3;;
40048;SDS011;54524;55.740;37.544;2023-11-22T04:06:11;5.8;;;3.4;;
40048;SDS011;54524;55.740;37.544;2023-11-22T04:07:12;5.6;;;3.3;;
40048;SDS011;54524;55.740;37.544;2023-11-22T04:08:12;5.5;;;3.4;;
40048;SDS011;54524;55.740;37.544;2023-11-22T04:09:12;4.1;;;2.8;;
40048;SDS011;54524;55.740;37.544;2023-11-22T04:11:03;4.2;;;2.9;;
40048;SDS011;54524;55.740;37.544;2023-11-22T04:12:04;5.2;;;3.4;;
40048;SDS011;54524;55.740;37.544;2023-11-22T04:13:04;5.3;;;3.4;;
40048;SDS011;54524;55.740;37.544;2023-11-22T04:14:05;5.3;;;3.4;;
40048;SDS011;54524;55.740;37.544;2023-11-22T04:15:06;4.8;;;3.1;;
40048;SDS011;54524;55.740;37.544;2023-11-22T04:16:09;5;;;3.2;;
40048;SDS011;54524;55.740;37.544;2023-11-22T04:17:11;5.1;;;3.2;;
40048;SDS011;54524;55.740;37.544;2023-11-22T04:18:12;4.8;;;3.2;;
40048;SDS011;54524;55.740;37.544;2023-11-22T04:19:12;4.9;;;3.2;;
40048;SDS011;54524;55.740;37.544;2023-11-22T04:21:03;4.9;;;3.6;;
40048;SDS011;54524;55.740;37.544;2023-11-22T04:22:05;4.8;;;3.6;;
40048;SDS011;54524;55.740;37.544;2023-11-22T04:23:05;4.8;;;3.5;;
40048;SDS011;54524;55.740;37.544;2023-11-22T04:24:06;4.9;;;3.5;;
40048;SDS011;54524;55.740;37.544;2023-11-22T04:25:07;5.5;;;3.5;;
40048;SDS011;54524;55.740;37.544;2023-11-22T04:26:08;5.3;;;3.4;;
40048;SDS011;54524;55.740;37.544;2023-11-22T04:27:09;5.2;;;3.4;;
40048;SDS011;54524;55.740;37.544;2023-11-22T04:28:10;6.3;;;3.5;;
40048;SDS011;54524;55.740;37.544;2023-11-22T04:29:10;6.4;;;3.5;;
40048;SDS011;54524;55.740;37.544;2023-11-22T04:31:03;5;;;3.5;;
40048;SDS011;54524;55.740;37.544;2023-11-22T04:32:04;5;;;3.5;;
40048;SDS011;54524;55.740;37.544;2023-11-22T04:33:05;4.9;;;3.5;;
40048;SDS011;54524;55.740;37.544;2023-11-22T04:34:06;5.2;;;3.4;;
40048;SDS011;54524;55.740;37.544;2023-11-22T04:35:07;5.2;;;3.4;;
40048;SDS011;54524;55.740;37.544;2023-11-22T04:36:08;5.1;;;3.4;;
40048;SDS011;54524;55.740;37.544;2023-11-22T04:37:08;5.1;;;3.4;;
40048;SDS011;54524;55.740;37.544;2023-11-22T04:38:09;5.2;;;3.4;;
40048;SDS011;54524;55.740;37.544;2023-11-22T04:39:09;5;;;3.3;;
40048;SDS011;54524;55.740;37.544;2023-11-22T04:41:03;4.3;;;3.2;;
40048;SDS011;54524;55.740;37.544;2023-11-22T04:42:04;4.6;;;3.2;;
40048;SDS011;54524;55.740;37.544;2023-11-22T04:43:05;4.6;;;3.1;;
40048;SDS011;54524;55.740;37.544;2023-11-22T04:44:07;5.8;;;3.3;;
40048;SDS011;54524;55.740;37.544;2023-11-22T04:45:08;5.7;;;3.3;;
40048;SDS011;54524;55.740;37.544;2023-11-22T04:46:09;5.5;;;3.2;;
40048;SDS011;54524;55.740;37.544;2023-11-22T04:47:10;4.6;;;2.9;;
40048;SDS011;54524;55.740;37.544;2023-11-22T04:48:10;4.7;;;2.9;;
40048;SDS011;54524;55.740;37.544;2023-11-22T04:49:12;4.8;;;2.9;;
40048;SDS011;54524;55.740;37.544;2023-11-22T04:51:03;4.6;;;2.9;;
40048;SDS011;54524;55.740;37.544;2023-11-22T04:52:04;4.6;;;2.9;;
40048;SDS011;54524;55.740;37.544;2023-11-22T04:53:05;4.4;;;2.9;;
40048;SDS011;54524;55.740;37.544;2023-11-22T04:54:05;4.4;;;2.9;;
40048;SDS011;54524;55.740;37.544;2023-11-22T04:55:06;4.4;;;2.9;;
40048;SDS011;54524;55.740;37.544;2023-11-22T04:56:07;3.6;;;2.7;;
40048;SDS011;54524;55.740;37.544;2023-11-22T04:57:07;3.8;;;2.7;;
40048;SDS011;54524;55.740;37.544;2023-11-22T04:58:08;3.8;;;2.7;;
40048;SDS011;54524;55.740;37.544;2023-11-22T04:59:08;4.9;;;2.9;;
40048;SDS011;54524;55.740;37.544;2023-11-22T05:01:04;4.9;;;2.9;;
40048;SDS011;54524;55.740;37.544;2023-11-22T05:02:04;4.9;;;2.9;;
40048;SDS011;54524;55.740;37.544;2023-11-22T05:03:07;4.6;;;3.2;;
40048;SDS011;54524;55.740;37.544;2023-11-22T05:04:08;4.5;;;3.1;;
40048;SDS011;54524;55.740;37.544;2023-11-22T05:05:08;4.5;;;3.1;;
40048;SDS011;54524;55.740;37.544;2023-11-22T05:06:12;4.3;;;3;;
40048;SDS011;54524;55.740;37.544;2023-11-22T05:07:13;4.1;;;3;;
40048;SDS011;54524;55.740;37.544;2023-11-22T05:08:13;4.8;;;2.8;;
40048;SDS011;54524;55.740;37.544;2023-11-22T05:09:14;4.8;;;2.8;;
40048;SDS011;54524;55.740;37.544;2023-11-22T05:11:03;4.7;;;2.7;;
40048;SDS011;54524;55.740;37.544;2023-11-22T05:12:05;3.6;;;2.5;;
40048;SDS011;54524;55.740;37.544;2023-11-22T05:13:05;3.6;;;2.5;;
40048;SDS011;54524;55.740;37.544;2023-11-22T05:14:06;3.6;;;2.5;;
40048;SDS011;54524;55.740;37.544;2023-11-22T05:15:07;4.8;;;2.9;;
40048;SDS011;54524;55.740;37.544;2023-11-22T05:16:08;4.8;;;2.9;;
40048;SDS011;54524;55.740;37.544;2023-11-22T05:17:08;4.9;;;3;;
40048;SDS011;54524;55.740;37.544;2023-11-22T05:18:09;4.7;;;2.8;;
40048;SDS011;54524;55.740;37.544;2023-11-22T05:19:09;4.6;;;2.8;;
40048;SDS011;54524;55.740;37.544;2023-11-22T05:21:03;4.4;;;2.7;;
40048;SDS011;54524;55.740;37.544;2023-11-22T05:22:04;4.3;;;2.7;;
40048;SDS011;54524;55.740;37.544;2023-11-22T05:23:04;4.3;;;2.7;;
40048;SDS011;54524;55.740;37.544;2023-11-22T05:24:06;0;;;0;;
40048;SDS011;54524;55.740;37.544;2023-11-22T05:25:08;4.1;;;2.8;;
40048;SDS011;54524;55.740;37.544;2023-11-22T05:26:08;4;;;2.8;;
40048;SDS011;54524;55.740;37.544;2023-11-22T05:27:09;4.1;;;2.6;;
40048;SDS011;54524;55.740;37.544;2023-11-22T05:28:11;4;;;2.6;;
40048;SDS011;54524;55.740;37.544;2023-11-22T05:29:12;4.1;;;2.6;;
40048;SDS011;54524;55.740;37.544;2023-11-22T05:31:03;3.9;;;2.6;;
40048;SDS011;54524;55.740;37.544;2023-11-22T05:32:04;3.9;;;2.6;;
40048;SDS011;54524;55.740;37.544;2023-11-22T05:33:05;3.9;;;2.6;;
40048;SDS011;54524;55.740;37.544;2023-11-22T05:34:05;4.3;;;2.5;;
40048;SDS011;54524;55.740;37.544;2023-11-22T05:35:06;4.3;;;2.5;;
40048;SDS011;54524;55.740;37.544;2023-11-22T05:36:10;4.3;;;2.5;;
40048;SDS011;54524;55.740;37.544;2023-11-22T05:37:12;4.1;;;2.5;;
40048;SDS011;54524;55.740;37.544;2023-11-22T05:38:12;4.1;;;2.5;;
40048;SDS011;54524;55.740;37.544;2023-11-22T05:39:13;4.1;;;2.5;;
40048;SDS011;54524;55.740;37.544;2023-11-22T05:41:03;2.8;;;2.3;;
40048;SDS011;54524;55.740;37.544;2023-11-22T05:42:03;2.8;;;2.3;;
40048;SDS011;54524;55.740;37.544;2023-11-22T05:43:04;4.1;;;2.8;;
40048;SDS011;54524;55.740;37.544;2023-11-22T05:44:05;4.1;;;2.8;;
40048;SDS011;54524;55.740;37.544;2023-11-22T05:45:06;4.1;;;2.7;;
40048;SDS011;54524;55.740;37.544;2023-11-22T05:46:08;3.9;;;2.6;;
40048;SDS011;54524;55.740;37.544;2023-11-22T05:47:08;3.9;;;2.6;;
40048;SDS011;54524;55.740;37.544;2023-11-22T05:48:09;3.9;;;2.5;;
40048;SDS011;54524;55.740;37.544;2023-11-22T05:49:09;3.7;;;2.4;;
40048;SDS011;54524;55.740;37.544;2023-11-22T05:51:04;3.7;;;2.3;;
40048;SDS011;54524;55.740;37.544;2023-11-22T05:52:05;3.4;;;2.3;;
40048;SDS011;54524;55.740;37.544;2023-11-22T05:53:05;3.4;;;2.3;;
40048;SDS011;54524;55.740;37.544;2023-11-22T05:54:06;3.4;;;2.3;;
40048;SDS011;54524;55.740;37.544;2023-11-22T05:55:07;3.4;;;1.8;;
40048;SDS011;54524;55.740;37.544;2023-11-22T05:56:08;3.4;;;1.8;;
40048;SDS011;54524;55.740;37.544;2023-11-22T05:57:09;3.5;;;1.8;;
40048;SDS011;54524;55.740;37.544;2023-11-22T05:58:09;4;;;2.1;;
40048;SDS011;54524;55.740;37.544;2023-11-22T05:59:10;4.1;;;2.2;;
40048;SDS011;54524;55.740;37.544;2023-11-22T06:01:04;3.4;;;2;;
40048;SDS011;54524;55.740;37.544;2023-11-22T06:02:04;3.4;;;2;;
40048;SDS011;54524;55.740;37.544;2023-11-22T06:03:05;3.5;;;2;;
40048;SDS011;54524;55.740;37.544;2023-11-22T06:04:05;3.6;;;2;;
40048;SDS011;54524;55.740;37.544;2023-11-22T06:05:09;3.6;;;2;;
40048;SDS011;54524;55.740;37.544;2023-11-22T06:06:10;3.7;;;2;;
40048;SDS011;54524;55.740;37.544;2023-11-22T06:07:10;0;;;0;;
40048;SDS011;54524;55.740;37.544;2023-11-22T06:08:11;3.1;;;1.9;;
40048;SDS011;54524;55.740;37.544;2023-11-22T06:09:11;3.1;;;1.9;;
40048;SDS011;54524;55.740;37.544;2023-11-22T06:11:03;3.6;;;1.8;;
40048;SDS011;54524;55.740;37.544;2023-11-22T06:12:04;3.7;;;1.8;;
40048;SDS011;54524;55.740;37.544;2023-11-22T06:13:05;5.3;;;1.8;;
40048;SDS011;54524;55.740;37.544;2023-11-22T06:14:06;5.3;;;1.8;;
40048;SDS011;54524;55.740;37.544;2023-11-22T06:15:07;5.3;;;1.8;;
40048;SDS011;54524;55.740;37.544;2023-11-22T06:16:08;5.3;;;1.8;;
40048;SDS011;54524;55.740;37.544;2023-11-22T06:17:09;5.3;;;1.8;;
40048;SDS011;54524;55.740;37.544;2023-11-22T06:18:10;5.3;;;1.8;;
40048;SDS011;54524;55.740;37.544;2023-11-22T06:19:10;3.1;;;1.8;;
40048;SDS011;54524;55.740;37.544;2023-11-22T06:21:03;3.2;;;1.8;;
40048;SDS011;54524;55.740;37.544;2023-11-22T06:22:04;3.1;;;1.8;;
40048;SDS011;54524;55.740;37.544;2023-11-22T06:23:04;3.6;;;2;;
40048;SDS011;54524;55.740;37.544;2023-11-22T06:24:05;3.5;;;2;;
40048;SDS011;54524;55.740;37.544;2023-11-22T06:25:08;3.5;;;1.9;;
40048;SDS011;54524;55.740;37.544;2023-11-22T06:26:09;4.9;;;1.9;;
40048;SDS011;54524;55.740;37.544;2023-11-22T06:27:10;4.9;;;1.9;;
40048;SDS011;54524;55.740;37.544;2023-11-22T06:28:10;4.8;;;1.9;;
40048;SDS011;54524;55.740;37.544;2023-11-22T06:29:11;4.8;;;1.9;;
40048;SDS011;54524;55.740;37.544;2023-11-22T06:31:03;6.30;;;1.20;;
40048;SDS011;54524;55.740;37.544;2023-11-22T06:32:04;6.30;;;1.20;;
40048;SDS011;54524;55.740;37.544;2023-11-22T06:33:06;6.30;;;1.20;;
40048;SDS011;54524;55.740;37.544;2023-11-22T06:34:07;6.30;;;1.20;;
40048;SDS011;54524;55.740;37.544;2023-11-22T06:35:08;6.30;;;1.20;;
40048;SDS011;54524;55.740;37.544;2023-11-22T06:36:10;6.30;;;1.20;;
40048;SDS011;54524;55.740;37.544;2023-11-22T06:37:11;6.30;;;1.20;;
40048;SDS011;54524;55.740;37.544;2023-11-22T06:38:13;6.30;;;1.20;;
40048;SDS011;54524;55.740;37.544;2023-11-22T06:39:13;6.30;;;1.20;;
40048;SDS011;54524;55.740;37.544;2023-11-22T06:41:03;3.3;;;1.6;;
40048;SDS011;54524;55.740;37.544;2023-11-22T06:42:04;3.4;;;1.6;;
40048;SDS011;54524;55.740;37.544;2023-11-22T06:43:04;3.4;;;1.6;;
40048;SDS011;54524;55.740;37.544;2023-11-22T06:44:05;1.8;;;1.3;;
40048;SDS011;54524;55.740;37.544;2023-11-22T06:45:06;1.9;;;1.4;;
40048;SDS011;54524;55.740;37.544;2023-11-22T06:46:10;2.4;;;1.4;;
40048;SDS011;54524;55.740;37.544;2023-11-22T06:47:11;2.6;;;1.2;;
40048;SDS011;54524;55.740;37.544;2023-11-22T06:48:12;2.5;;;1.2;;
40048;SDS011;54524;55.740;37.544;2023-11-22T06:49:12;2.5;;;1.2;;